Map

Track Data

SID SEASON NUMBER BASIN SUBBASIN NAME ISO_TIME NATURE LAT LON WMO_WIND WMO_PRES WMO_AGENCY TRACK_TYPE DIST2LAND LANDFALL IFLAG USA_AGENCY USA_ATCF_ID USA_LAT USA_LON USA_RECORD USA_STATUS USA_WIND USA_PRES USA_SSHS USA_R34_NE USA_R34_SE USA_R34_SW USA_R34_NW USA_R50_NE USA_R50_SE USA_R50_SW USA_R50_NW USA_R64_NE USA_R64_SE USA_R64_SW USA_R64_NW USA_POCI USA_ROCI USA_RMW USA_EYE TOKYO_LAT TOKYO_LON TOKYO_GRADE TOKYO_WIND TOKYO_PRES TOKYO_R50_DIR TOKYO_R50_LONG TOKYO_R50_SHORT TOKYO_R30_DIR TOKYO_R30_LONG TOKYO_R30_SHORT TOKYO_LAND CMA_LAT CMA_LON CMA_CAT CMA_WIND CMA_PRES HKO_LAT HKO_LON HKO_CAT HKO_WIND HKO_PRES NEWDELHI_LAT NEWDELHI_LON NEWDELHI_GRADE NEWDELHI_WIND NEWDELHI_PRES NEWDELHI_CI NEWDELHI_DP NEWDELHI_POCI REUNION_LAT REUNION_LON REUNION_TYPE REUNION_WIND REUNION_PRES REUNION_TNUM REUNION_CI REUNION_RMW REUNION_R34_NE REUNION_R34_SE REUNION_R34_SW REUNION_R34_NW REUNION_R50_NE REUNION_R50_SE REUNION_R50_SW REUNION_R50_NW REUNION_R64_NE REUNION_R64_SE REUNION_R64_SW REUNION_R64_NW BOM_LAT BOM_LON BOM_TYPE BOM_WIND BOM_PRES BOM_TNUM BOM_CI BOM_RMW BOM_R34_NE BOM_R34_SE BOM_R34_SW BOM_R34_NW BOM_R50_NE BOM_R50_SE BOM_R50_SW BOM_R50_NW BOM_R64_NE BOM_R64_SE BOM_R64_SW BOM_R64_NW BOM_ROCI BOM_POCI BOM_EYE BOM_POS_METHOD BOM_PRES_METHOD NADI_LAT NADI_LON NADI_CAT NADI_WIND NADI_PRES WELLINGTON_LAT WELLINGTON_LON WELLINGTON_WIND WELLINGTON_PRES DS824_LAT DS824_LON DS824_STAGE DS824_WIND DS824_PRES TD9636_LAT TD9636_LON TD9636_STAGE TD9636_WIND TD9636_PRES TD9635_LAT TD9635_LON TD9635_WIND TD9635_PRES TD9635_ROCI NEUMANN_LAT NEUMANN_LON NEUMANN_CLASS NEUMANN_WIND NEUMANN_PRES MLC_LAT MLC_LON MLC_CLASS MLC_WIND MLC_PRES USA_GUST BOM_GUST BOM_GUST_PER REUNION_GUST REUNION_GUST_PER USA_SEAHGT USA_SEARAD_NE USA_SEARAD_SE USA_SEARAD_SW USA_SEARAD_NW STORM_SPEED STORM_DIR
1874241N14326 1874 15 NA NA NOT_NAMED 1874-08-29 00:00:00 TS 13.6000 -34.5000 40 hurdat_atl main 1837 1837 O_____________ hurdat_atl AL031874 13.6000 -34.5000 TS 40 0 10 282
1874241N14326 1874 15 NA NA NOT_NAMED 1874-08-29 03:00:00 TS 13.7027 -34.9999 main 1890 1890 P_____________ AL031874 13.7027 -34.9999 TS 40 0 10 282
1874241N14326 1874 15 NA NA NOT_NAMED 1874-08-29 06:00:00 TS 13.8000 -35.5000 40 hurdat_atl main 1930 1922 O_____________ hurdat_atl AL031874 13.8000 -35.5000 TS 40 0 10 281
1874241N14326 1874 15 NA NA NOT_NAMED 1874-08-29 09:00:00 TS 13.8924 -36.0001 main 1928 1921 P_____________ AL031874 13.8924 -36.0001 TS 40 0 10 282
1874241N14326 1874 15 NA NA NOT_NAMED 1874-08-29 12:00:00 TS 14.0000 -36.5000 40 hurdat_atl main 1928 1914 O_____________ hurdat_atl AL031874 14.0000 -36.5000 TS 40 0 10 284
1874241N14326 1874 15 NA NA NOT_NAMED 1874-08-29 15:00:00 TS 14.1424 -37.0000 main 1914 1882 P_____________ AL031874 14.1424 -37.0000 TS 40 0 10 287
1874241N14326 1874 15 NA NA NOT_NAMED 1874-08-29 18:00:00 TS 14.3000 -37.5000 40 hurdat_atl main 1882 1845 O_____________ hurdat_atl AL031874 14.3000 -37.5000 TS 40 0 10 288
1874241N14326 1874 15 NA NA NOT_NAMED 1874-08-29 21:00:00 TS 14.4499 -38.0001 main 1845 1816 P_____________ AL031874 14.4499 -38.0001 TS 40 0 10 287
1874241N14326 1874 15 NA NA NOT_NAMED 1874-08-30 00:00:00 TS 14.6000 -38.5000 40 hurdat_atl main 1816 1781 O_____________ hurdat_atl AL031874 14.6000 -38.5000 TS 40 0 10 287
1874241N14326 1874 15 NA NA NOT_NAMED 1874-08-30 03:00:00 TS 14.7424 -39.0001 main 1781 1755 P_____________ AL031874 14.7424 -39.0001 TS 40 0 10 287
1874241N14326 1874 15 NA NA NOT_NAMED 1874-08-30 06:00:00 TS 14.9000 -39.5000 40 hurdat_atl main 1755 1730 O_____________ hurdat_atl AL031874 14.9000 -39.5000 TS 40 0 10 290
1874241N14326 1874 15 NA NA NOT_NAMED 1874-08-30 09:00:00 TS 15.0999 -40.0075 main 1730 1707 P_____________ AL031874 15.0999 -40.0075 TS 40 0 10 293
1874241N14326 1874 15 NA NA NOT_NAMED 1874-08-30 12:00:00 TS 15.3000 -40.5000 40 hurdat_atl main 1707 1685 O_____________ hurdat_atl AL031874 15.3000 -40.5000 TS 40 0 10 291
1874241N14326 1874 15 NA NA NOT_NAMED 1874-08-30 15:00:00 TS 15.4573 -40.9501 main 1686 1665 P_____________ AL031874 15.4573 -40.9501 TS 40 0 9 289
1874241N14326 1874 15 NA NA NOT_NAMED 1874-08-30 18:00:00 TS 15.6000 -41.4000 40 hurdat_atl main 1665 1639 O_____________ hurdat_atl AL031874 15.6000 -41.4000 TS 40 0 9 288
1874241N14326 1874 15 NA NA NOT_NAMED 1874-08-30 21:00:00 TS 15.7499 -41.8851 main 1639 1623 P_____________ AL031874 15.7499 -41.8851 TS 45 0 10 287
1874241N14326 1874 15 NA NA NOT_NAMED 1874-08-31 00:00:00 TS 15.9000 -42.4000 50 hurdat_atl main 1623 1600 O_____________ hurdat_atl AL031874 15.9000 -42.4000 TS 50 0 11 286
1874241N14326 1874 15 NA NA NOT_NAMED 1874-08-31 03:00:00 TS 16.0349 -42.9352 main 1600 1582 P_____________ AL031874 16.0349 -42.9352 TS 50 0 11 286
1874241N14326 1874 15 NA NA NOT_NAMED 1874-08-31 06:00:00 TS 16.2000 -43.5000 50 hurdat_atl main 1582 1559 O_____________ hurdat_atl AL031874 16.2000 -43.5000 TS 50 0 12 290
1874241N14326 1874 15 NA NA NOT_NAMED 1874-08-31 09:00:00 TS 16.4500 -44.0998 main 1559 1549 P_____________ AL031874 16.4500 -44.0998 TS 50 0 13 293
1874241N14326 1874 15 NA NA NOT_NAMED 1874-08-31 12:00:00 TS 16.7000 -44.7000 50 hurdat_atl main 1549 1529 O_____________ hurdat_atl AL031874 16.7000 -44.7000 TS 50 0 12 290
1874241N14326 1874 15 NA NA NOT_NAMED 1874-08-31 15:00:00 TS 16.8498 -45.2579 main 1523 1515 P_____________ AL031874 16.8498 -45.2579 TS 50 0 11 286
1874241N14326 1874 15 NA NA NOT_NAMED 1874-08-31 18:00:00 TS 17.0000 -45.8000 50 hurdat_atl main 1515 1508 O_____________ hurdat_atl AL031874 17.0000 -45.8000 TS 50 0 11 291
1874241N14326 1874 15 NA NA NOT_NAMED 1874-08-31 21:00:00 TS 17.2574 -46.3498 main 1518 1508 P_____________ AL031874 17.2574 -46.3498 TS 55 0 12 295
1874241N14326 1874 15 NA NA NOT_NAMED 1874-09-01 00:00:00 TS 17.5000 -46.9000 60 hurdat_atl main 1509 1497 O_____________ hurdat_atl AL031874 17.5000 -46.9000 TS 60 0 11 288
1874241N14326 1874 15 NA NA NOT_NAMED 1874-09-01 03:00:00 TS 17.5997 -47.4355 main 1497 1483 P_____________ AL031874 17.5997 -47.4355 TS 60 0 11 281
1874241N14326 1874 15 NA NA NOT_NAMED 1874-09-01 06:00:00 TS 17.7000 -48.0000 60 hurdat_atl main 1483 1474 O_____________ hurdat_atl AL031874 17.7000 -48.0000 TS 60 0 12 286
1874241N14326 1874 15 NA NA NOT_NAMED 1874-09-01 09:00:00 TS 17.9275 -48.6424 main 1475 1470 P_____________ AL031874 17.9275 -48.6424 TS 60 0 13 292
1874241N14326 1874 15 NA NA NOT_NAMED 1874-09-01 12:00:00 TS 18.2000 -49.3000 60 hurdat_atl main 1476 1471 O_____________ hurdat_atl AL031874 18.2000 -49.3000 TS 60 0 13 293
1874241N14326 1874 15 NA NA NOT_NAMED 1874-09-01 15:00:00 TS 18.4347 -49.9004 main 1472 1440 P_____________ AL031874 18.4347 -49.9004 TS 60 0 12 294
1874241N14326 1874 15 NA NA NOT_NAMED 1874-09-01 18:00:00 TS 18.7000 -50.5000 60 hurdat_atl main 1440 1412 O_____________ hurdat_atl AL031874 18.7000 -50.5000 TS 60 0 13 297
1874241N14326 1874 15 NA NA NOT_NAMED 1874-09-01 21:00:00 TS 19.0501 -51.1648 main 1411 1386 P_____________ AL031874 19.0501 -51.1648 TS 65 1 14 300
1874241N14326 1874 15 NA NA NOT_NAMED 1874-09-02 00:00:00 TS 19.4000 -51.8000 70 hurdat_atl main 1386 1364 O_____________ hurdat_atl AL031874 19.4000 -51.8000 HU 70 1 12 299
1874241N14326 1874 15 NA NA NOT_NAMED 1874-09-02 03:00:00 TS 19.6570 -52.3081 main 1372 1352 P_____________ AL031874 19.6570 -52.3081 HU 70 1 11 298
1874241N14326 1874 15 NA NA NOT_NAMED 1874-09-02 06:00:00 TS 19.9000 -52.8000 70 hurdat_atl main 1353 1264 O_____________ hurdat_atl AL031874 19.9000 -52.8000 HU 70 1 15 293
1874241N14326 1874 15 NA NA NOT_NAMED 1874-09-02 09:00:00 TS 20.2378 -53.7889 main 1254 1178 P_____________ AL031874 20.1926 -53.4000 HU 70 1 19 293
1874241N14326 1874 15 NA NA NOT_NAMED 1874-09-02 12:00:00 TS 20.6400 -54.6400 70 hurdat_atl main 1178 1116 O____________O hurdat_atl AL031874 20.5000 -54.0000 HU 70 1 21.2000 -57.2000 HU 85 17 300
1874241N14326 1874 15 NA NA NOT_NAMED 1874-09-02 15:00:00 TS 21.0725 -55.3294 main 1119 1071 P____________P AL031874 20.7997 -54.5153 HU 70 1 21.7977 -57.5093 HU 87 15 307
1874241N14326 1874 15 NA NA NOT_NAMED 1874-09-02 18:00:00 TS 21.5333 -55.9333 70 hurdat_atl main 1071 1042 O____________O hurdat_atl AL031874 21.1000 -55.0000 HU 70 1 22.4000 -57.8000 HU 90 13 312
1874241N14326 1874 15 NA NA NOT_NAMED 1874-09-02 21:00:00 TS 21.9306 -56.3521 main 1036 1015 P____________P AL031874 21.3923 -55.4928 HU 70 1 23.0072 -58.0706 HU 92 11 315
1874241N14326 1874 15 NA NA NOT_NAMED 1874-09-03 00:00:00 TS 22.3333 -56.8000 70 hurdat_atl main 1015 988 O____________O hurdat_atl AL031874 21.7000 -56.0000 HU 70 1 23.6000 -58.4000 HU 95 12 312
1874241N14326 1874 15 NA NA NOT_NAMED 1874-09-03 03:00:00 TS 22.7526 -57.3333 main 993 966 P____________P AL031874 22.0500 -56.5574 HU 70 1 24.1577 -58.8849 HU 95 13 310
1874241N14326 1874 15 NA NA NOT_NAMED 1874-09-03 06:00:00 TS 23.1667 -57.8667 70 hurdat_atl main 963 948 O____________O hurdat_atl AL031874 22.4000 -57.1000 HU 70 1 24.7000 -59.4000 HU 95 12 312
1874241N14326 1874 15 NA NA NOT_NAMED 1874-09-03 09:00:00 TS 23.5547 -58.3130 main 954 943 P____________P AL031874 22.7072 -57.5654 HU 70 1 25.2497 -59.8082 HU 95 11 314
1874241N14326 1874 15 NA NA NOT_NAMED 1874-09-03 12:00:00 TS 23.9333 -58.7333 70 hurdat_atl main 943 934 O____________O hurdat_atl AL031874 23.0000 -58.0000 HU 70 1 25.8000 -60.2000 HU 95 11 313
1874241N14326 1874 15 NA NA NOT_NAMED 1874-09-03 15:00:00 TS 24.3016 -59.1837 main 934 928 P____________P AL031874 23.2774 -58.4504 HU 70 1 26.3500 -60.6502 HU 95 11 313
1874241N14326 1874 15 NA NA NOT_NAMED 1874-09-03 18:00:00 TS 24.7000 -59.6333 70 hurdat_atl main 938 931 O____________O hurdat_atl AL031874 23.6000 -58.9000 HU 70 1 26.9000 -61.1000 HU 95 12 317
1874241N14326 1874 15 NA NA NOT_NAMED 1874-09-03 21:00:00 TS 25.1632 -60.0670 main 948 948 P____________P AL031874 24.0274 -59.3501 HU 70 1 27.4348 -61.5008 HU 95 12 321
1874241N14326 1874 15 NA NA NOT_NAMED 1874-09-04 00:00:00 TS 25.6667 -60.5000 70 hurdat_atl main 970 964 O____________O hurdat_atl AL031874 24.5000 -59.8000 HU 70 1 28.0000 -61.9000 HU 95 13 322
1874241N14326 1874 15 NA NA NOT_NAMED 1874-09-04 03:00:00 TS 26.1833 -60.9625 main 991 991 P____________P AL031874 24.9349 -60.2579 HU 70 1 28.6802 -62.3718 HU 95 13 322
1874241N14326 1874 15 NA NA NOT_NAMED 1874-09-04 06:00:00 TS 26.7000 -61.4000 70 hurdat_atl main 1022 1022 O____________O hurdat_atl AL031874 25.4000 -60.7000 HU 70 1 29.3000 -62.8000 HU 95 12 325
1874241N14326 1874 15 NA NA NOT_NAMED 1874-09-04 09:00:00 TS 27.2006 -61.7654 main 1057 1057 P____________P AL031874 25.9574 -61.1150 HU 70 1 29.6871 -63.0662 HU 95 12 327
1874241N14326 1874 15 NA NA NOT_NAMED 1874-09-04 12:00:00 TS 27.6667 -62.1000 70 hurdat_atl main 1099 1095 O____________O hurdat_atl AL031874 26.5000 -61.5000 HU 70 1 30.0000 -63.3000 HU 95 11 325
1874241N14326 1874 15 NA NA NOT_NAMED 1874-09-04 15:00:00 TS 28.0791 -62.4553 main 1129 1129 P____________P AL031874 26.9223 -61.8580 HU 70 1 30.3926 -63.6499 HU 95 10 322
1874241N14326 1874 15 NA NA NOT_NAMED 1874-09-04 18:00:00 TS 28.4667 -62.8000 70 hurdat_atl main 1164 1161 O____________O hurdat_atl AL031874 27.3000 -62.2000 HU 70 1 30.8000 -64.0000 HU 95 10 324
1874241N14326 1874 15 NA NA NOT_NAMED 1874-09-04 21:00:00 TS 28.8589 -63.1072 main 1200 1198 P____________P AL031874 27.6848 -62.5356 HU 70 1 31.2073 -64.2505 HU 95 10 325
1874241N14326 1874 15 NA NA NOT_NAMED 1874-09-05 00:00:00 TS 29.2667 -63.4333 70 hurdat_atl main 1238 1236 O____________O hurdat_atl AL031874 28.1000 -62.9000 HU 70 1 31.6000 -64.5000 HU 95 11 323
1874241N14326 1874 15 NA NA NOT_NAMED 1874-09-05 03:00:00 TS 29.7144 -63.8572 main 1274 1228 P____________P AL031874 28.5927 -63.3646 HU 70 1 31.9576 -64.8426 HU 95 12 321
1874241N14326 1874 15 NA NA NOT_NAMED 1874-09-05 06:00:00 TS 30.1667 -64.2667 70 hurdat_atl main 1213 1173 O____________O hurdat_atl AL031874 29.1000 -63.8000 HU 70 1 32.3000 -65.2000 HU 95 11 325
1874241N14326 1874 15 NA NA NOT_NAMED 1874-09-05 09:00:00 TS 30.5806 -64.5516 main 1165 1125 P____________P AL031874 29.5421 -64.0660 HU 70 1 32.6575 -65.5226 HU 95 10 331
1874241N14326 1874 15 NA NA NOT_NAMED 1874-09-05 12:00:00 TS 31.0000 -64.8000 70 hurdat_atl main 1125 1078 O____________O hurdat_atl AL031874 30.0000 -64.3000 HU 70 1 33.0000 -65.8000 HU 95 10 332
1874241N14326 1874 15 NA NA NOT_NAMED 1874-09-05 15:00:00 TS 31.4567 -65.0976 main 1072 1026 P____________P AL031874 30.5276 -64.6425 HU 70 1 33.3148 -66.0079 HU 95 11 331
1874241N14326 1874 15 NA NA NOT_NAMED 1874-09-05 18:00:00 TS 31.9333 -65.4000 70 hurdat_atl main 1026 976 O____________O hurdat_atl AL031874 31.1000 -65.0000 HU 70 1 33.6000 -66.2000 HU 95 11 332
1874241N14326 1874 15 NA NA NOT_NAMED 1874-09-05 21:00:00 TS 32.4141 -65.6911 main 976 927 P____________P AL031874 31.6924 -65.3153 HU 75 1 33.8575 -66.4426 HU 95 11 334
1874241N14326 1874 15 NA NA NOT_NAMED 1874-09-06 00:00:00 TS 32.9000 -65.9667 80 hurdat_atl main 927 893 O____________O hurdat_atl AL031874 32.3000 -65.6000 HU 80 1 34.1000 -66.7000 HU 95 11 335
1874241N14326 1874 15 NA NA NOT_NAMED 1874-09-06 03:00:00 TS 33.3683 -66.2246 main 890 849 P____________P AL031874 32.8774 -65.8582 HU 80 1 34.3500 -66.9576 HU 95 11 337
1874241N14326 1874 15 NA NA NOT_NAMED 1874-09-06 06:00:00 TS 33.8667 -66.4667 80 hurdat_atl main 846 813 O____________O hurdat_atl AL031874 33.5000 -66.1000 HU 80 1 34.6000 -67.2000 HU 95 11 339
1874241N14326 1874 15 NA NA NOT_NAMED 1874-09-06 09:00:00 TS 34.4075 -66.7103 main 813 782 P____________P AL031874 34.1900 -66.3578 HU 80 1 34.8425 -67.4152 HU 92 12 342
1874241N14326 1874 15 NA NA NOT_NAMED 1874-09-06 12:00:00 TS 35.0333 -66.9333 80 hurdat_atl main 782 710 O____________O hurdat_atl AL031874 35.0000 -66.6000 HU 80 1 35.1000 -67.6000 HU 90 965 14 344
1874241N14326 1874 15 NA NA NOT_NAMED 1874-09-06 15:00:00 TS 35.7575 -67.1776 main 699 623 P____________P AL031874 35.9401 -66.8727 HU 80 1 35.3925 -67.7873 HU 87 16 349
1874241N14326 1874 15 NA NA NOT_NAMED 1874-09-06 18:00:00 TS 36.5667 -67.3000 80 hurdat_atl main 613 535 O____________O hurdat_atl AL031874 37.0000 -67.0000 HU 80 1 35.7000 -67.9000 HU 85 17 359
1874241N14326 1874 15 NA NA NOT_NAMED 1874-09-06 21:00:00 TS 37.4128 -67.2335 main 535 456 P____________P AL031874 38.1494 -66.8845 HU 80 1 35.9398 -67.9315 HU 85 18 9
1874241N14326 1874 15 NA NA NOT_NAMED 1874-09-07 00:00:00 TS 38.3000 -66.9333 80 hurdat_atl main 460 413 O____________O hurdat_atl AL031874 39.3000 -66.5000 HU 80 1 36.3000 -67.8000 HU 85 19 19
1874241N14326 1874 15 NA NA NOT_NAMED 1874-09-07 03:00:00 TS 39.1923 -66.4327 main 411 378 P____________P AL031874 40.3527 -65.8834 HU 80 1 36.8716 -67.5313 HU 85 20 27
1874241N14326 1874 15 NA NA NOT_NAMED 1874-09-07 06:00:00 TS 40.1000 -65.7333 80 hurdat_atl main 378 289 O____________O hurdat_atl AL031874 41.3000 -65.1000 HU 80 1 37.7000 -67.0000 HU 85 21 30
1874241N14326 1874 15 NA NA NOT_NAMED 1874-09-07 09:00:00 TS 40.9790 -65.0590 main 278 202 P____________P AL031874 42.1281 -64.3774 HU 75 1 38.6809 -66.4222 HU 82 22 35
1874241N14326 1874 15 NA NA NOT_NAMED 1874-09-07 12:00:00 MX 41.9333 -64.0333 70 hurdat_atl main 207 182 O____________O hurdat_atl AL031874 42.9000 -63.5000 EX 70 -4 40.0000 -65.1000 HU 80 975 29 45
1874241N14326 1874 15 NA NA NOT_NAMED 1874-09-07 15:00:00 MX 43.0721 -62.2713 main 178 131 P____________P AL031874 43.7068 -62.3532 EX 70 -4 41.8027 -62.1076 HU 77 977 35 50
1874241N14326 1874 15 NA NA NOT_NAMED 1874-09-07 18:00:00 ET 44.1667 -60.3333 70 hurdat_atl main 127 121 O____________O hurdat_atl AL031874 44.5000 -61.0000 EX 70 -4 43.5000 -59.0000 EX 75 980 31 51
1874241N14326 1874 15 NA NA NOT_NAMED 1874-09-07 21:00:00 ET 45.0367 -58.9103 main 128 127 P____________P AL031874 45.2570 -59.5344 EX 65 -4 44.5962 -57.6620 EX 72 25 50
1874241N14326 1874 15 NA NA NOT_NAMED 1874-09-08 00:00:00 ET 45.8000 -57.6000 60 hurdat_atl main 174 56 O____________O hurdat_atl AL031874 46.0000 -58.0000 EX 60 -4 45.5000 -57.0000 EX 70 24 51
1874241N14326 1874 15 NA NA NOT_NAMED 1874-09-08 03:00:00 ET 46.5117 -56.2723 main 56 0 P____________P AL031874 46.7505 -56.4956 EX 60 -4 46.2730 -56.0491 EX 65 25 46
1874241N14326 1874 15 NA NA NOT_NAMED 1874-09-08 06:00:00 ET 47.5000 -55.0000 60 hurdat_atl main 0 0 O____________O hurdat_atl AL031874 47.5000 -55.0000 EX 60 -4 47.5000 -55.0000 EX 60 39 27
1874241N14326 1874 15 NA NA NOT_NAMED 1874-09-08 09:00:00 ET 50.0011 -53.6082 main 68 68 _____________P AL031874 EX -4 50.0011 -53.6082 EX 55 53 21
1874241N14326 1874 15 NA NA NOT_NAMED 1874-09-08 12:00:00 ET 52.5000 -52.0000 main 242 242 _____________O 52.5000 -52.0000 EX 50 43 26
1874241N14326 1874 15 NA NA NOT_NAMED 1874-09-08 15:00:00 ET 53.8751 -50.4520 main 354 354 _____________P 53.8751 -50.4520 EX 45 27 41
1874241N14326 1874 15 NA NA NOT_NAMED 1874-09-08 18:00:00 ET 54.5000 -49.0000 main 462 _____________O 54.5000 -49.0000 EX 40 21 53

About IBTrACS Database

This database is a web-friendly format of International Best Track Archive for Climate Stewardship (IBTrACS), a global best track data archive curated by NOAA dating back to 1842.

Updated: 2021-10-19